Buoy 46612

sailwx.info

Track history (hours):
 
Tides and Currents Weather Stations Pressure Air Temp Water Temp Dewpoint Dewpoint Depression Visibility Wind Speed Wind Dir Waves Ship Positions

Drifting buoy 46612

Last reported at 2014-Jul-29 15:00 UTC. Time now 2014-Jul-29 16:57 UTC.
Position N 27°24' W 138°26'.

Water temperature 22.7 ° C

Date/timePositionNaut miles runAvg speedWind from/ knotsBaromVisibWave heightAir tempDewpointWater temp
2014-Jul-29 15:00N 27°24' W 138°26'0 0.2 22.7
2014-Jul-29 13:00N 27°24' W 138°27'0 0.0 22.7
2014-Jul-29 12:00N 27°24' W 138°27'1 0.2 22.7
2014-Jul-29 07:00N 27°23' W 138°26'1 0.6 22.9
2014-Jul-29 06:00N 27°23' W 138°25'0 0.1 22.9
2014-Jul-29 05:00N 27°23' W 138°25'1 0.6 22.9
2014-Jul-29 04:00N 27°24' W 138°24'1 0.4 23.0
2014-Jul-29 02:00N 27°24' W 138°24'1 0.3 23.1
2014-Jul-29 00:00N 27°25' W 138°24'0 0.2 23.2
2014-Jul-28 23:00N 27°25' W 138°24'0 0.0 23.1
2014-Jul-28 22:00N 27°25' W 138°24'1 0.3 22.9
2014-Jul-28 19:00N 27°26' W 138°24'1 0.4 22.7
2014-Jul-28 16:00N 27°27' W 138°25'0 0.1 22.6
2014-Jul-28 15:00N 27°27' W 138°25'0 0.3 22.6
2014-Jul-28 14:00N 27°26' W 138°25'0 0.3 22.6
2014-Jul-28 13:00N 27°26' W 138°26'0 0.2 22.6
2014-Jul-28 12:00N 27°26' W 138°25'0 0.0 22.6
2014-Jul-28 11:00N 27°26' W 138°25'2 0.5 22.6
2014-Jul-28 07:00N 27°26' W 138°23'0 0.2 22.7
2014-Jul-28 06:00N 27°26' W 138°23'0 0.1 22.7
2014-Jul-28 05:00N 27°26' W 138°23'1 0.8 22.7
2014-Jul-28 04:00N 27°26' W 138°22'1 0.6 22.7
2014-Jul-28 03:00N 27°27' W 138°22'0 0.1 22.8
2014-Jul-28 02:00N 27°27' W 138°22'1 0.7 22.8
2014-Jul-28 01:00N 27°28' W 138°23'0 0.5 22.8
2014-Jul-28 00:00N 27°28' W 138°22'1 0.5 22.8
2014-Jul-27 23:00N 27°28' W 138°23'1 0.7 22.8
2014-Jul-27 22:00N 27°28' W 138°22'0 0.1 22.9
2014-Jul-27 19:00N 27°29' W 138°22'1 0.6 22.6
2014-Jul-27 18:00N 27°29' W 138°23'0 0.0 22.6
2014-Jul-27 17:00N 27°29' W 138°23'0 0.1 22.6
2014-Jul-27 16:00N 27°29' W 138°23'0 0.1 22.6
2014-Jul-27 15:00N 27°29' W 138°23'1 0.3 22.6
2014-Jul-27 13:00N 27°28' W 138°23'0 0.0 22.6
2014-Jul-27 12:00N 27°28' W 138°23'1 0.8 22.6
2014-Jul-27 11:00N 27°28' W 138°22'1 0.3 22.7
2014-Jul-27 07:00N 27°27' W 138°21'0 0.3 22.7
2014-Jul-27 06:00N 27°28' W 138°21'1 1.2 22.8
2014-Jul-27 05:00N 27°29' W 138°20'0 0.2 22.8
2014-Jul-27 03:00N 27°28' W 138°20'2 0.9 22.9
2014-Jul-27 01:00N 27°30' W 138°18'0 0.0 22.9
2014-Jul-27 00:00N 27°30' W 138°18'1 0.4 22.9
2014-Jul-26 22:00N 27°30' W 138°19'0 0.1 22.8
2014-Jul-26 21:00N 27°30' W 138°19'1 0.3 22.7
2014-Jul-26 16:00N 27°31' W 138°20'0 0.2 22.5
2014-Jul-26 13:00N 27°30' W 138°20'0 0.2 22.5
2014-Jul-26 12:00N 27°30' W 138°19'0 0.0 22.6
2014-Jul-26 11:00N 27°30' W 138°19'1 0.3 22.6
2014-Jul-26 08:00N 27°29' W 138°19'1 0.5 22.6
2014-Jul-26 06:00N 27°29' W 138°18'1 0.3 22.6
2014-Jul-26 03:00N 27°29' W 138°17'1 0.3 22.7
2014-Jul-26 01:00N 27°29' W 138°16'1 0.2 22.8
2014-Jul-25 22:00N 27°30' W 138°16'1 0.7 22.7
2014-Jul-25 21:00N 27°30' W 138°17'2 1.0 22.7
2014-Jul-25 19:00N 27°32' W 138°16'0 0.0 22.6
2014-Jul-25 18:00N 27°32' W 138°16'2 0.5 22.5
2014-Jul-25 14:00N 27°30' W 138°17'0 0.0 22.5
2014-Jul-25 13:00N 27°30' W 138°17'0 0.1 22.5
2014-Jul-25 12:00N 27°30' W 138°17'1 0.4 22.5
2014-Jul-25 10:00N 27°30' W 138°16'1 0.4 22.6
2014-Jul-25 07:00N 27°29' W 138°15'1 0.3 22.6
2014-Jul-25 04:00N 27°29' W 138°13'1 0.7 22.7
2014-Jul-25 03:00N 27°30' W 138°13'0 0.4 22.7
2014-Jul-25 02:00N 27°30' W 138°13'0 0.0 22.8
2014-Jul-25 01:00N 27°30' W 138°13'1 0.6 22.8
2014-Jul-24 23:00N 27°31' W 138°12'0 0.2 22.9
2014-Jul-24 21:00N 27°30' W 138°12'0 0.0 22.7
2014-Jul-24 20:00N 27°30' W 138°12'0 0.3 22.6
2014-Jul-24 19:00N 27°31' W 138°12'0 0.2 22.5
2014-Jul-24 18:00N 27°31' W 138°12'0 0.1 22.5
2014-Jul-24 16:00N 27°31' W 138°12'0 0.0 22.5
2014-Jul-24 09:00N 27°31' W 138°12'1 0.7 22.6
2014-Jul-24 07:00N 27°30' W 138°11'1 0.7 22.6
2014-Jul-24 06:00N 27°29' W 138°11'1 0.6 22.6
2014-Jul-24 05:00N 27°30' W 138°11'1 0.2 22.7
2014-Jul-24 02:00N 27°30' W 138°10'0 0.2 22.8
2014-Jul-24 00:00N 27°30' W 138°09'0 0.1 22.9
2014-Jul-23 23:00N 27°30' W 138°09'0 0.1 22.9
2014-Jul-23 21:00N 27°30' W 138°09'0 0.1 22.8
2014-Jul-23 16:00N 27°30' W 138°10'1 0.3 22.4
2014-Jul-23 14:00N 27°30' W 138°09'0 0.1 22.4
2014-Jul-23 13:00N 27°30' W 138°09'2 0.3 22.4
2014-Jul-23 07:00N 27°29' W 138°07'0 0.2 22.5
2014-Jul-23 06:00N 27°29' W 138°08'0 0.1 22.5
2014-Jul-23 02:00N 27°29' W 138°07'0 0.5 22.7
2014-Jul-23 01:00N 27°29' W 138°08'1 0.8 22.8
2014-Jul-23 00:00N 27°29' W 138°07'0 0.0 22.8
2014-Jul-22 23:00N 27°29' W 138°07'0 0.0 22.8
2014-Jul-22 21:00N 27°29' W 138°07'0 0.1 22.6
2014-Jul-22 19:00N 27°29' W 138°07'0 0.0 22.4
2014-Jul-22 18:00N 27°29' W 138°07'1 0.2 22.3
2014-Jul-22 15:00N 27°29' W 138°06'0 0.3 22.2
2014-Jul-22 14:00N 27°29' W 138°06'0 0.2 22.2
2014-Jul-22 13:00N 27°29' W 138°06'1 0.1 22.2
2014-Jul-22 05:00N 27°28' W 138°05'1 0.6 22.3
2014-Jul-22 04:00N 27°28' W 138°05'0 0.1 22.3
2014-Jul-22 03:00N 27°28' W 138°05'0 0.3 22.4
2014-Jul-22 02:00N 27°27' W 138°05'1 0.2 22.4
2014-Jul-21 22:00N 27°27' W 138°05'1 0.6 22.3
2014-Jul-21 20:00N 27°26' W 138°04'1 0.4 22.3
2014-Jul-21 18:00N 27°26' W 138°03'0 0.0 22.2
2014-Jul-21 17:00N 27°26' W 138°03'1 0.4 22.2
2014-Jul-21 15:00N 27°26' W 138°02'0 0.0 22.3
2014-Jul-21 07:00N 27°26' W 138°02'0 0.3 22.6
2014-Jul-21 06:00N 27°26' W 138°02'0 0.1 22.6
2014-Jul-21 03:00N 27°26' W 138°03'0 0.3 22.6
2014-Jul-21 02:00N 27°26' W 138°03'0 0.2 22.4
2014-Jul-21 00:00N 27°26' W 138°03'0 0.2 22.2
2014-Jul-20 23:00N 27°26' W 138°03'0 0.1 22.2
2014-Jul-20 22:00N 27°26' W 138°03'1 0.3 22.1
2014-Jul-20 19:00N 27°25' W 138°03'0 0.5 22.1
2014-Jul-20 18:00N 27°25' W 138°03'0 0.1 22.2
2014-Jul-20 15:00N 27°24' W 138°03'0 0.4 22.4
2014-Jul-20 14:00N 27°24' W 138°03'0 0.4 22.5
2014-Jul-20 13:00N 27°24' W 138°02'0 0.1 22.6
2014-Jul-20 12:00N 27°24' W 138°02'1 0.1 22.6
2014-Jul-20 07:00N 27°25' W 138°02'0 0.2 23.4
2014-Jul-20 04:00N 27°25' W 138°03'0 0.3 23.7
2014-Jul-20 03:00N 27°25' W 138°02'1 0.2 23.5
2014-Jul-20 00:00N 27°26' W 138°03'0 0.3 24.4
2014-Jul-19 23:00N 27°25' W 138°03'0 0.0 24.4
2014-Jul-19 22:00N 27°25' W 138°03'1 0.4 24.4
2014-Jul-19 20:00N 27°25' W 138°04'0 0.3 22.8
2014-Jul-19 19:00N 27°25' W 138°04'0 0.4 22.4
2014-Jul-19 18:00N 27°25' W 138°04'   22.2
Track history (hours):
 
Tides and Currents Weather Stations Pressure Air Temp Water Temp Dewpoint Dewpoint Depression Visibility Wind Speed Wind Dir Waves Ship Positions

Drifting buoy 46612

Last reported at 2014-Jul-29 15:00 UTC. Time now 2014-Jul-29 16:57 UTC.
Position N 27°24' W 138°26'.

Water temperature 22.7 ° C

Date/timePositionNaut miles runAvg speedWind from/ knotsBaromVisibWave heightAir tempDewpointWater temp
2014-Jul-29 15:00N 27°24' W 138°26'0 0.2 22.7
2014-Jul-29 13:00N 27°24' W 138°27'0 0.0 22.7
2014-Jul-29 12:00N 27°24' W 138°27'1 0.2 22.7
2014-Jul-29 07:00N 27°23' W 138°26'1 0.6 22.9
2014-Jul-29 06:00N 27°23' W 138°25'0 0.1 22.9
2014-Jul-29 05:00N 27°23' W 138°25'1 0.6 22.9
2014-Jul-29 04:00N 27°24' W 138°24'1 0.4 23.0
2014-Jul-29 02:00N 27°24' W 138°24'1 0.3 23.1
2014-Jul-29 00:00N 27°25' W 138°24'0 0.2 23.2
2014-Jul-28 23:00N 27°25' W 138°24'0 0.0 23.1
2014-Jul-28 22:00N 27°25' W 138°24'1 0.3 22.9
2014-Jul-28 19:00N 27°26' W 138°24'1 0.4 22.7
2014-Jul-28 16:00N 27°27' W 138°25'0 0.1 22.6
2014-Jul-28 15:00N 27°27' W 138°25'0 0.3 22.6
2014-Jul-28 14:00N 27°26' W 138°25'0 0.3 22.6
2014-Jul-28 13:00N 27°26' W 138°26'0 0.2 22.6
2014-Jul-28 12:00N 27°26' W 138°25'0 0.0 22.6
2014-Jul-28 11:00N 27°26' W 138°25'2 0.5 22.6
2014-Jul-28 07:00N 27°26' W 138°23'0 0.2 22.7
2014-Jul-28 06:00N 27°26' W 138°23'0 0.1 22.7
2014-Jul-28 05:00N 27°26' W 138°23'1 0.8 22.7
2014-Jul-28 04:00N 27°26' W 138°22'1 0.6 22.7
2014-Jul-28 03:00N 27°27' W 138°22'0 0.1 22.8
2014-Jul-28 02:00N 27°27' W 138°22'1 0.7 22.8
2014-Jul-28 01:00N 27°28' W 138°23'0 0.5 22.8
2014-Jul-28 00:00N 27°28' W 138°22'1 0.5 22.8
2014-Jul-27 23:00N 27°28' W 138°23'1 0.7 22.8
2014-Jul-27 22:00N 27°28' W 138°22'0 0.1 22.9
2014-Jul-27 19:00N 27°29' W 138°22'1 0.6 22.6
2014-Jul-27 18:00N 27°29' W 138°23'0 0.0 22.6
2014-Jul-27 17:00N 27°29' W 138°23'0 0.1 22.6
2014-Jul-27 16:00N 27°29' W 138°23'0 0.1 22.6
2014-Jul-27 15:00N 27°29' W 138°23'1 0.3 22.6
2014-Jul-27 13:00N 27°28' W 138°23'0 0.0 22.6
2014-Jul-27 12:00N 27°28' W 138°23'1 0.8 22.6
2014-Jul-27 11:00N 27°28' W 138°22'1 0.3 22.7
2014-Jul-27 07:00N 27°27' W 138°21'0 0.3 22.7
2014-Jul-27 06:00N 27°28' W 138°21'1 1.2 22.8
2014-Jul-27 05:00N 27°29' W 138°20'0 0.2 22.8
2014-Jul-27 03:00N 27°28' W 138°20'2 0.9 22.9
2014-Jul-27 01:00N 27°30' W 138°18'0 0.0 22.9
2014-Jul-27 00:00N 27°30' W 138°18'1 0.4 22.9
2014-Jul-26 22:00N 27°30' W 138°19'0 0.1 22.8
2014-Jul-26 21:00N 27°30' W 138°19'1 0.3 22.7
2014-Jul-26 16:00N 27°31' W 138°20'0 0.2 22.5
2014-Jul-26 13:00N 27°30' W 138°20'0 0.2 22.5
2014-Jul-26 12:00N 27°30' W 138°19'0 0.0 22.6
2014-Jul-26 11:00N 27°30' W 138°19'1 0.3 22.6
2014-Jul-26 08:00N 27°29' W 138°19'1 0.5 22.6
2014-Jul-26 06:00N 27°29' W 138°18'1 0.3 22.6
2014-Jul-26 03:00N 27°29' W 138°17'1 0.3 22.7
2014-Jul-26 01:00N 27°29' W 138°16'1 0.2 22.8
2014-Jul-25 22:00N 27°30' W 138°16'1 0.7 22.7
2014-Jul-25 21:00N 27°30' W 138°17'2 1.0 22.7
2014-Jul-25 19:00N 27°32' W 138°16'0 0.0 22.6
2014-Jul-25 18:00N 27°32' W 138°16'2 0.5 22.5
2014-Jul-25 14:00N 27°30' W 138°17'0 0.0 22.5
2014-Jul-25 13:00N 27°30' W 138°17'0 0.1 22.5
2014-Jul-25 12:00N 27°30' W 138°17'1 0.4 22.5
2014-Jul-25 10:00N 27°30' W 138°16'1 0.4 22.6
2014-Jul-25 07:00N 27°29' W 138°15'1 0.3 22.6
2014-Jul-25 04:00N 27°29' W 138°13'1 0.7 22.7
2014-Jul-25 03:00N 27°30' W 138°13'0 0.4 22.7
2014-Jul-25 02:00N 27°30' W 138°13'0 0.0 22.8
2014-Jul-25 01:00N 27°30' W 138°13'1 0.6 22.8
2014-Jul-24 23:00N 27°31' W 138°12'0 0.2 22.9
2014-Jul-24 21:00N 27°30' W 138°12'0 0.0 22.7
2014-Jul-24 20:00N 27°30' W 138°12'0 0.3 22.6
2014-Jul-24 19:00N 27°31' W 138°12'0 0.2 22.5
2014-Jul-24 18:00N 27°31' W 138°12'0 0.1 22.5
2014-Jul-24 16:00N 27°31' W 138°12'0 0.0 22.5
2014-Jul-24 09:00N 27°31' W 138°12'1 0.7 22.6
2014-Jul-24 07:00N 27°30' W 138°11'1 0.7 22.6
2014-Jul-24 06:00N 27°29' W 138°11'1 0.6 22.6
2014-Jul-24 05:00N 27°30' W 138°11'1 0.2 22.7
2014-Jul-24 02:00N 27°30' W 138°10'0 0.2 22.8
2014-Jul-24 00:00N 27°30' W 138°09'0 0.1 22.9
2014-Jul-23 23:00N 27°30' W 138°09'0 0.1 22.9
2014-Jul-23 21:00N 27°30' W 138°09'0 0.1 22.8
2014-Jul-23 16:00N 27°30' W 138°10'1 0.3 22.4
2014-Jul-23 14:00N 27°30' W 138°09'0 0.1 22.4
2014-Jul-23 13:00N 27°30' W 138°09'2 0.3 22.4
2014-Jul-23 07:00N 27°29' W 138°07'0 0.2 22.5
2014-Jul-23 06:00N 27°29' W 138°08'0 0.1 22.5
2014-Jul-23 02:00N 27°29' W 138°07'0 0.5 22.7
2014-Jul-23 01:00N 27°29' W 138°08'1 0.8 22.8
2014-Jul-23 00:00N 27°29' W 138°07'0 0.0 22.8
2014-Jul-22 23:00N 27°29' W 138°07'0 0.0 22.8
2014-Jul-22 21:00N 27°29' W 138°07'0 0.1 22.6
2014-Jul-22 19:00N 27°29' W 138°07'0 0.0 22.4
2014-Jul-22 18:00N 27°29' W 138°07'1 0.2 22.3
2014-Jul-22 15:00N 27°29' W 138°06'0 0.3 22.2
2014-Jul-22 14:00N 27°29' W 138°06'0 0.2 22.2
2014-Jul-22 13:00N 27°29' W 138°06'1 0.1 22.2
2014-Jul-22 05:00N 27°28' W 138°05'1 0.6 22.3
2014-Jul-22 04:00N 27°28' W 138°05'0 0.1 22.3
2014-Jul-22 03:00N 27°28' W 138°05'0 0.3 22.4
2014-Jul-22 02:00N 27°27' W 138°05'1 0.2 22.4
2014-Jul-21 22:00N 27°27' W 138°05'1 0.6 22.3
2014-Jul-21 20:00N 27°26' W 138°04'1 0.4 22.3
2014-Jul-21 18:00N 27°26' W 138°03'0 0.0 22.2
2014-Jul-21 17:00N 27°26' W 138°03'1 0.4 22.2
2014-Jul-21 15:00N 27°26' W 138°02'0 0.0 22.3
2014-Jul-21 07:00N 27°26' W 138°02'0 0.3 22.6
2014-Jul-21 06:00N 27°26' W 138°02'0 0.1 22.6
2014-Jul-21 03:00N 27°26' W 138°03'0 0.3 22.6
2014-Jul-21 02:00N 27°26' W 138°03'0 0.2 22.4
2014-Jul-21 00:00N 27°26' W 138°03'0 0.2 22.2
2014-Jul-20 23:00N 27°26' W 138°03'0 0.1 22.2
2014-Jul-20 22:00N 27°26' W 138°03'1 0.3 22.1
2014-Jul-20 19:00N 27°25' W 138°03'0 0.5 22.1
2014-Jul-20 18:00N 27°25' W 138°03'0 0.1 22.2
2014-Jul-20 15:00N 27°24' W 138°03'0 0.4 22.4
2014-Jul-20 14:00N 27°24' W 138°03'0 0.4 22.5
2014-Jul-20 13:00N 27°24' W 138°02'0 0.1 22.6
2014-Jul-20 12:00N 27°24' W 138°02'1 0.1 22.6
2014-Jul-20 07:00N 27°25' W 138°02'0 0.2 23.4
2014-Jul-20 04:00N 27°25' W 138°03'0 0.3 23.7
2014-Jul-20 03:00N 27°25' W 138°02'1 0.2 23.5
2014-Jul-20 00:00N 27°26' W 138°03'0 0.3 24.4
2014-Jul-19 23:00N 27°25' W 138°03'0 0.0 24.4
2014-Jul-19 22:00N 27°25' W 138°03'1 0.4 24.4
2014-Jul-19 20:00N 27°25' W 138°04'0 0.3 22.8
2014-Jul-19 19:00N 27°25' W 138°04'0 0.4 22.4
2014-Jul-19 18:00N 27°25' W 138°04'   22.2

Dump ship's entire track history